KCCO

Newnan Coweta County Airport

Atlanta, Georgia, USA
METAR KCCO 201515Z AUTO 16006KT 10SM OVC005 19/17 A3038 RMK AO2 T01900167
Observed Flight Rules
Feb-20 @ 15:15 UTC (2 hours ago) Instrument Flight Rules
Wind Visibility Clouds
160° at 6 knots 10 miles
  • Overcast at 500' AGL
Temperatures Readings
Current 19°C / 66°F
Dewpoint 17°C / 63°F
Humidity 88%
Altimeter 30.38" Hg
Pressure 1029 hPa
Elevation 296
METAR KCCO 201515Z AUTO 16006KT 10SM OVC005 19/17 A3038 RMK AO2 T01900167
Observed Flight Rules
Feb-20 @ 15:15 UTC
(2 hours ago)
IFR
Wind Visibility
160° at 6 knots 10 miles
Clouds
  • Overcast at 500' AGL
Temperature Dewpoint
19°C / 66°F 17°C / 63°F
Humidity Altimeter Pressure
88% 30.38" Hg 1029 hPa